Time;durP1;ratioP1;P1;durP2;ratioP2;P2;SDS_P1;SDS_P2;PMS_P1;PMS_P2;Temp;Humidity;BMP_temperature;BMP_pressure;BME280_temperature;BME280_humidity;BME280_pressure;Samples;Min_cycle;Max_cycle;Signal;HPM_P1;HPM_P2
2021/01/31 00:00:24;;;;;;;9.13;5.70;;;;;;;4.07;100.00;96348.22;5111958;28;20618;-78
2021/01/31 00:02:51;;;;;;;10.30;6.20;;;;;;;4.18;100.00;96352.91;5111989;28;20192;-79
2021/01/31 00:05:19;;;;;;;9.47;5.67;;;;;;;4.34;100.00;96350.69;5114573;28;20204;-78
2021/01/31 00:07:47;;;;;;;9.87;6.30;;;;;;;4.17;100.00;96352.09;5112469;28;20744;-79
2021/01/31 00:10:16;;;;;;;9.57;5.93;;;;;;;4.06;100.00;96350.03;5109255;27;20220;-78
2021/01/31 00:12:43;;;;;;;8.27;5.50;;;;;;;4.08;100.00;96342.75;5118148;28;20196;-79
2021/01/31 00:15:15;;;;;;;9.93;5.80;;;;;;;4.32;100.00;96344.78;5112481;28;20211;-78
2021/01/31 00:17:42;;;;;;;9.50;5.63;;;;;;;4.10;100.00;96345.19;5123507;28;20230;-77
2021/01/31 00:20:10;;;;;;;9.83;5.97;;;;;;;4.39;100.00;96347.44;5120253;28;20211;-76
2021/01/31 00:22:37;;;;;;;9.57;5.80;;;;;;;4.42;100.00;96350.47;5120350;28;20225;-77
2021/01/31 00:25:06;;;;;;;10.53;6.13;;;;;;;4.31;100.00;96345.81;5107567;27;20210;-77
2021/01/31 00:27:33;;;;;;;9.87;5.90;;;;;;;4.07;100.00;96353.50;5114014;28;20231;-77
2021/01/31 00:30:00;;;;;;;9.40;5.97;;;;;;;4.07;100.00;96359.59;5115757;28;20224;-77
2021/01/31 00:32:29;;;;;;;9.70;6.13;;;;;;;4.03;100.00;96365.47;5113507;28;20202;-77
2021/01/31 00:34:57;;;;;;;8.43;5.50;;;;;;;4.27;100.00;96359.63;5112271;28;20672;-75
2021/01/31 00:37:25;;;;;;;8.40;5.50;;;;;;;4.09;100.00;96362.84;5115912;28;20235;-78
2021/01/31 00:39:52;;;;;;;12.50;6.97;;;;;;;4.12;100.00;96356.38;5117487;28;20245;-77
2021/01/31 00:42:21;;;;;;;10.90;6.77;;;;;;;4.14;100.00;96365.72;5118965;28;20237;-76
2021/01/31 00:44:49;;;;;;;11.63;6.43;;;;;;;4.07;100.00;96375.41;5118240;28;20283;-78
2021/01/31 00:47:17;;;;;;;10.70;6.43;;;;;;;3.85;100.00;96373.13;5113498;28;20276;-79
2021/01/31 00:49:44;;;;;;;10.67;6.47;;;;;;;4.07;100.00;96367.50;5112487;28;20225;-77
2021/01/31 00:52:11;;;;;;;10.87;6.57;;;;;;;4.29;100.00;96373.44;5117535;28;20224;-75
2021/01/31 00:54:38;;;;;;;10.80;6.23;;;;;;;4.09;100.00;96368.13;5108187;28;20212;-77
2021/01/31 00:57:05;;;;;;;10.17;6.00;;;;;;;4.05;100.00;96371.34;5108459;28;20197;-77
2021/01/31 00:59:33;;;;;;;10.77;7.03;;;;;;;4.15;100.00;96369.13;5111947;28;20275;-77
2021/01/31 01:02:00;;;;;;;12.43;6.33;;;;;;;4.08;100.00;96363.06;5112461;28;20554;-79
2021/01/31 01:04:27;;;;;;;11.70;7.43;;;;;;;4.08;100.00;96363.06;5108873;28;20196;-75
2021/01/31 01:06:54;;;;;;;12.43;7.30;;;;;;;4.13;100.00;96357.97;5105101;28;20196;-78
2021/01/31 01:09:21;;;;;;;12.20;6.70;;;;;;;4.19;100.00;96352.72;5115897;28;20204;-78
2021/01/31 01:11:48;;;;;;;10.30;6.47;;;;;;;4.17;100.00;96367.94;5112408;28;20204;-76
2021/01/31 01:14:14;;;;;;;10.77;6.73;;;;;;;4.21;100.00;96371.78;5107087;28;20204;-77
2021/01/31 01:16:42;;;;;;;12.37;7.03;;;;;;;4.32;100.00;96368.56;5109968;28;20195;-77
2021/01/31 01:19:09;;;;;;;11.80;7.30;;;;;;;4.02;100.00;96377.84;5115105;28;20216;-77
2021/01/31 01:21:35;;;;;;;12.63;7.17;;;;;;;3.92;100.00;96377.41;5108243;28;20202;-78
2021/01/31 01:24:02;;;;;;;12.30;7.67;;;;;;;3.74;100.00;96385.09;5112224;28;20205;-77
2021/01/31 01:26:30;;;;;;;12.67;7.13;;;;;;;3.87;100.00;96379.03;5112447;28;20204;-77
2021/01/31 01:28:57;;;;;;;11.40;7.17;;;;;;;4.21;100.00;96387.63;5109796;28;20234;-79
2021/01/31 01:31:24;;;;;;;11.47;6.97;;;;;;;4.25;100.00;96382.75;5109123;28;20232;-77
2021/01/31 01:33:52;;;;;;;14.13;7.73;;;;;;;4.07;100.00;96382.53;5110537;28;20211;-77
2021/01/31 01:36:19;;;;;;;16.23;8.27;;;;;;;4.24;100.00;96379.31;5113289;28;20191;-77
2021/01/31 01:38:46;;;;;;;13.83;7.43;;;;;;;4.18;100.00;96382.78;5105363;28;20815;-79
2021/01/31 01:41:13;;;;;;;13.57;8.30;;;;;;;4.00;100.00;96386.97;5112184;28;20242;-79
2021/01/31 01:43:41;;;;;;;13.80;7.50;;;;;;;4.08;100.00;96385.00;5103628;28;20211;-77
2021/01/31 01:46:36;;;;;;;14.37;7.70;;;;;;;4.00;100.00;96384.34;5105703;28;20644;-76
2021/01/31 01:49:12;;;;;;;11.93;7.27;;;;;;;4.38;100.00;96391.53;5109688;28;20573;-78
2021/01/31 01:51:44;;;;;;;12.40;7.33;;;;;;;4.50;100.00;96387.28;5105252;28;20728;-77
2021/01/31 01:54:14;;;;;;;11.07;6.93;;;;;;;4.21;100.00;96389.47;5110497;28;20631;-78
2021/01/31 01:56:43;;;;;;;12.87;7.53;;;;;;;4.52;100.00;96379.94;5107700;28;20188;-77
2021/01/31 01:59:11;;;;;;;13.67;7.67;;;;;;;4.17;100.00;96381.13;5108941;28;20230;-78
2021/01/31 02:01:54;;;;;;;13.43;7.87;;;;;;;4.16;100.00;96384.00;5108604;28;20205;-78
2021/01/31 02:04:22;;;;;;;14.07;7.33;;;;;;;4.07;100.00;96385.97;5111855;28;20735;-75
2021/01/31 02:06:49;;;;;;;12.60;6.93;;;;;;;4.33;100.00;96386.03;5108200;28;20212;-77
2021/01/31 02:09:15;;;;;;;14.30;8.43;;;;;;;4.24;100.00;96381.97;5108668;28;20206;-78
2021/01/31 02:11:42;;;;;;;14.60;8.50;;;;;;;4.07;100.00;96385.97;5111807;28;20236;-78
2021/01/31 02:14:12;;;;;;;14.07;7.57;;;;;;;4.08;100.00;96397.34;5107360;28;20214;-78
2021/01/31 02:16:49;;;;;;;14.87;8.03;;;;;;;4.24;100.00;96387.25;5112766;28;20239;-79
2021/01/31 02:19:46;;;;;;;13.63;7.90;;;;;;;4.32;100.00;96394.16;5111476;28;20245;-78
2021/01/31 02:22:38;;;;;;;13.20;7.83;;;;;;;4.13;100.00;96400.22;5107716;28;20201;-78
2021/01/31 02:25:48;;;;;;;14.00;7.50;;;;;;;4.12;100.00;96402.03;5109711;28;20229;-78
2021/01/31 02:28:38;;;;;;;15.23;8.23;;;;;;;4.20;100.00;96409.78;5069552;28;20224;-78
2021/01/31 02:31:45;;;;;;;11.33;7.17;;;;;;;4.31;100.00;96406.53;5111779;28;20302;-80
2021/01/31 02:34:17;;;;;;;16.10;8.90;;;;;;;4.22;100.00;96418.28;5121504;28;20210;-77
2021/01/31 02:36:52;;;;;;;13.83;7.70;;;;;;;4.19;100.00;96412.59;5133802;28;20215;-75
2021/01/31 02:39:27;;;;;;;15.93;8.27;;;;;;;4.22;100.00;96415.66;5132268;28;20232;-78
2021/01/31 02:42:04;;;;;;;13.50;8.07;;;;;;;4.01;100.00;96405.25;5120549;27;20571;-79
2021/01/31 02:44:31;;;;;;;14.40;8.73;;;;;;;4.15;100.00;96414.84;5113056;28;20205;-78
2021/01/31 02:47:00;;;;;;;15.83;8.67;;;;;;;4.12;100.00;96422.34;5110860;28;20924;-78
2021/01/31 02:49:30;;;;;;;16.60;9.37;;;;;;;3.75;100.00;96438.66;5129101;28;20202;-76
2021/01/31 02:52:02;;;;;;;12.00;7.77;;;;;;;4.17;100.00;96422.56;5133664;28;20291;-76
2021/01/31 02:54:33;;;;;;;13.87;8.07;;;;;;;4.16;100.00;96428.88;5114320;28;20200;-77
2021/01/31 02:57:03;;;;;;;14.57;8.47;;;;;;;4.42;100.00;96429.69;5117744;28;20535;-77
2021/01/31 02:59:34;;;;;;;14.23;7.97;;;;;;;4.18;100.00;96430.28;5097698;28;20197;-77
2021/01/31 03:02:04;;;;;;;15.70;8.17;;;;;;;4.26;100.00;96429.28;5106663;28;20226;-76
2021/01/31 03:04:35;;;;;;;13.20;8.50;;;;;;;3.90;100.00;96437.50;5105188;28;20257;-75
2021/01/31 03:07:06;;;;;;;15.57;8.30;;;;;;;3.95;100.00;96439.53;5105200;28;20576;-77
2021/01/31 03:09:36;;;;;;;15.10;8.50;;;;;;;3.80;100.00;96447.59;5116450;28;20185;-75
2021/01/31 03:12:06;;;;;;;14.57;8.83;;;;;;;3.93;100.00;96437.13;5116206;28;20637;-75
2021/01/31 03:14:39;;;;;;;16.53;8.27;;;;;;;3.97;100.00;96443.59;5108338;28;20203;-76
2021/01/31 03:17:12;;;;;;;14.90;8.33;;;;;;;3.65;100.00;96444.28;5103657;28;20200;-77
2021/01/31 03:19:43;;;;;;;12.87;8.20;;;;;;;3.75;100.00;96451.84;5113347;28;20210;-78
2021/01/31 03:22:13;;;;;;;16.93;9.20;;;;;;;3.83;100.00;96447.22;5113539;28;20204;-78
2021/01/31 03:24:43;;;;;;;13.77;8.37;;;;;;;4.11;100.00;96450.56;5118475;28;20202;-78
2021/01/31 03:27:12;;;;;;;14.53;8.97;;;;;;;3.65;100.00;96446.13;5112410;28;20733;-76
2021/01/31 03:29:40;;;;;;;15.97;9.23;;;;;;;4.06;100.00;96436.34;5118554;28;20203;-78
2021/01/31 03:32:11;;;;;;;14.90;8.53;;;;;;;3.81;100.00;96443.94;5114447;28;20686;-79
2021/01/31 03:34:43;;;;;;;12.63;7.47;;;;;;;4.10;100.00;96437.56;5114072;27;20287;-77
2021/01/31 03:37:11;;;;;;;15.67;8.33;;;;;;;4.07;100.00;96433.47;5114331;28;20602;-78
2021/01/31 03:39:40;;;;;;;14.20;8.50;;;;;;;3.80;100.00;96437.06;5110967;28;20196;-76
2021/01/31 03:42:07;;;;;;;12.90;7.93;;;;;;;3.90;100.00;96432.22;5105846;28;20658;-78
2021/01/31 03:44:36;;;;;;;12.90;7.90;;;;;;;3.82;100.00;96432.38;5117325;28;20200;-77
2021/01/31 03:47:07;;;;;;;14.80;8.37;;;;;;;3.78;100.00;96427.72;5116781;28;20365;-78
2021/01/31 03:49:40;;;;;;;15.97;8.43;;;;;;;3.78;100.00;96427.72;5108874;28;20544;-77
2021/01/31 03:52:07;;;;;;;14.33;8.27;;;;;;;3.76;100.00;96424.47;5114820;28;20191;-79
2021/01/31 03:54:34;;;;;;;16.23;8.60;;;;;;;3.68;100.00;96443.09;5111367;28;20204;-77
2021/01/31 03:57:05;;;;;;;14.60;8.50;;;;;;;3.67;100.00;96449.38;5114355;28;20203;-77
2021/01/31 03:59:35;;;;;;;13.40;8.03;;;;;;;3.87;100.00;96455.56;5113441;28;20202;-77
2021/01/31 04:02:02;;;;;;;17.60;8.83;;;;;;;3.58;100.00;96451.38;5111838;28;20200;-76
2021/01/31 04:04:32;;;;;;;16.43;9.00;;;;;;;3.99;100.00;96459.25;5108592;28;20301;-79
2021/01/31 04:07:00;;;;;;;14.13;8.30;;;;;;;3.68;100.00;96474.75;5103921;28;20276;-78
2021/01/31 04:09:29;;;;;;;14.20;8.67;;;;;;;3.73;100.00;96482.88;5115032;28;20197;-78
2021/01/31 04:12:03;;;;;;;12.77;8.50;;;;;;;3.63;100.00;96495.59;5114146;28;20314;-77
2021/01/31 04:14:36;;;;;;;15.60;7.97;;;;;;;3.95;100.00;96490.50;5113091;28;20204;-79
2021/01/31 04:17:03;;;;;;;16.23;8.73;;;;;;;3.71;100.00;96493.63;5099532;28;20200;-78
2021/01/31 04:19:30;;;;;;;15.00;7.80;;;;;;;3.56;100.00;96487.66;5109989;28;20196;-79
2021/01/31 04:21:57;;;;;;;15.17;8.47;;;;;;;3.65;100.00;96489.13;5113190;28;20206;-78
2021/01/31 04:24:24;;;;;;;12.53;7.80;;;;;;;3.75;100.00;96481.69;5108452;28;20208;-78
2021/01/31 04:26:51;;;;;;;13.83;8.10;;;;;;;3.58;100.00;96480.38;5115759;28;20660;-78
2021/01/31 04:29:18;;;;;;;13.27;7.30;;;;;;;3.83;100.00;96476.25;5114483;28;20207;-79
2021/01/31 04:31:45;;;;;;;14.83;8.50;;;;;;;3.66;100.00;96482.84;5121845;28;20219;-76
2021/01/31 04:34:12;;;;;;;14.97;8.30;;;;;;;3.67;100.00;96484.47;5113938;28;20283;-78
2021/01/31 04:36:39;;;;;;;14.50;7.93;;;;;;;3.71;100.00;96490.19;5112166;28;20210;-79
2021/01/31 04:39:06;;;;;;;14.67;7.60;;;;;;;3.94;100.00;96480.97;5111703;28;20217;-78
2021/01/31 04:41:34;;;;;;;14.87;7.97;;;;;;;3.99;100.00;96481.19;5113792;28;20196;-76
2021/01/31 04:44:03;;;;;;;15.40;8.43;;;;;;;4.01;100.00;96481.78;5111413;28;20216;-74
2021/01/31 04:46:41;;;;;;;14.23;8.17;;;;;;;3.84;100.00;96472.59;5106318;28;20672;-77
2021/01/31 04:49:21;;;;;;;14.03;7.60;;;;;;;3.91;100.00;96475.25;5113873;28;20739;-76
2021/01/31 04:52:00;;;;;;;12.93;8.33;;;;;;;3.96;100.00;96470.22;5109581;28;20230;-77
2021/01/31 04:54:36;;;;;;;13.73;7.80;;;;;;;3.50;100.00;96474.47;5109822;28;20210;-79
2021/01/31 04:57:07;;;;;;;13.50;8.03;;;;;;;3.79;100.00;96471.53;5111245;28;20671;-78
2021/01/31 04:59:37;;;;;;;14.57;7.93;;;;;;;3.74;100.00;96472.13;5116569;28;20254;-78
2021/01/31 05:02:07;;;;;;;14.33;8.53;;;;;;;3.58;100.00;96472.47;5108323;28;20195;-75
2021/01/31 05:04:38;;;;;;;14.60;8.23;;;;;;;3.84;100.00;96477.03;5109833;28;20207;-79
2021/01/31 05:07:07;;;;;;;14.17;8.63;;;;;;;3.57;100.00;96468.22;5116733;28;20196;-78
2021/01/31 05:09:34;;;;;;;11.97;7.50;;;;;;;3.53;100.00;96479.31;5113209;28;20660;-79
2021/01/31 05:12:09;;;;;;;14.03;7.87;;;;;;;3.43;100.00;96482.31;5116846;28;20219;-76
2021/01/31 05:14:49;;;;;;;13.53;7.90;;;;;;;3.72;100.00;96471.50;5110872;28;20192;-78
2021/01/31 05:17:18;;;;;;;13.67;7.60;;;;;;;3.81;100.00;96477.44;5110036;28;21237;-78
2021/01/31 05:19:45;;;;;;;13.83;8.40;;;;;;;3.63;100.00;96472.69;5113961;28;20240;-78
2021/01/31 05:22:12;;;;;;;13.10;7.43;;;;;;;3.37;100.00;96474.38;5115943;28;20288;-77
2021/01/31 05:24:39;;;;;;;14.20;8.43;;;;;;;3.46;100.00;96460.03;5117120;28;20234;-76
2021/01/31 05:27:07;;;;;;;13.90;7.97;;;;;;;3.43;100.00;96469.13;5117575;28;20292;-77
2021/01/31 05:29:36;;;;;;;11.77;7.23;;;;;;;3.61;100.00;96464.16;5105772;28;20545;-76
2021/01/31 05:32:07;;;;;;;12.07;7.00;;;;;;;3.79;100.00;96467.09;5111849;28;20226;-78
2021/01/31 05:34:36;;;;;;;11.80;7.30;;;;;;;3.73;100.00;96461.78;5115565;28;20203;-78
2021/01/31 05:37:05;;;;;;;13.67;7.33;;;;;;;3.73;100.00;96462.59;5111709;28;20205;-78
2021/01/31 05:39:43;;;;;;;11.57;6.93;;;;;;;3.66;100.00;96466.22;5113236;28;20253;-77
2021/01/31 05:42:13;;;;;;;13.57;7.77;;;;;;;3.61;100.00;96466.78;5108506;28;20699;-75
2021/01/31 05:44:42;;;;;;;12.10;7.27;;;;;;;3.61;100.00;96474.69;5104335;28;20197;-76
2021/01/31 05:47:24;;;;;;;14.53;7.67;;;;;;;3.76;100.00;96483.28;5109002;28;20235;-76
2021/01/31 05:49:53;;;;;;;12.53;7.43;;;;;;;3.80;100.00;96484.53;5103143;28;20196;-78
2021/01/31 05:52:34;;;;;;;12.93;7.20;;;;;;;3.60;100.00;96494.19;5111075;28;20211;-77
2021/01/31 05:55:02;;;;;;;11.97;6.93;;;;;;;3.76;100.00;96490.41;5112589;28;20196;-76
2021/01/31 05:57:31;;;;;;;12.37;8.03;;;;;;;3.71;100.00;96490.97;5103013;28;20228;-76
2021/01/31 06:00:00;;;;;;;12.63;7.33;;;;;;;3.82;100.00;96493.06;5112022;28;20204;-76
2021/01/31 06:02:29;;;;;;;12.43;7.27;;;;;;;3.97;100.00;96495.59;5104618;28;20202;-74
2021/01/31 06:05:14;;;;;;;12.07;7.30;;;;;;;3.93;100.00;96487.25;5112724;28;20207;-77
2021/01/31 06:07:43;;;;;;;12.83;6.93;;;;;;;3.77;100.00;96498.09;5112155;28;20234;-76
2021/01/31 06:10:13;;;;;;;14.20;6.87;;;;;;;3.78;100.00;96505.03;5112583;28;20203;-76
2021/01/31 06:12:40;;;;;;;14.20;7.40;;;;;;;3.56;100.00;96508.75;5108941;28;20566;-76
2021/01/31 06:15:13;;;;;;;13.77;7.83;;;;;;;3.64;100.00;96510.41;5108291;28;20200;-76
2021/01/31 06:17:40;;;;;;;15.13;7.63;;;;;;;3.64;100.00;96511.25;5112184;28;20220;-76
2021/01/31 06:20:11;;;;;;;13.37;7.03;;;;;;;3.98;100.00;96508.59;5110829;28;20211;-77
2021/01/31 06:22:43;;;;;;;10.87;6.90;;;;;;;3.60;100.00;96512.63;5109569;28;20649;-77
2021/01/31 06:25:14;;;;;;;11.67;6.97;;;;;;;4.00;100.00;96508.38;5104545;28;20192;-76
2021/01/31 06:27:42;;;;;;;11.83;6.60;;;;;;;3.95;100.00;96516.88;5113208;28;20722;-77
2021/01/31 06:30:18;;;;;;;10.87;6.73;;;;;;;3.75;100.00;96515.13;5118001;28;20248;-76
2021/01/31 06:32:47;;;;;;;13.23;7.20;;;;;;;3.78;100.00;96523.50;5120935;28;20244;-75
2021/01/31 06:35:17;;;;;;;13.40;7.43;;;;;;;3.64;100.00;96529.72;5108485;28;20196;-77
2021/01/31 06:37:54;;;;;;;11.40;6.43;;;;;;;3.89;100.00;96530.03;5112485;28;20216;-77
2021/01/31 06:40:35;;;;;;;10.20;6.60;;;;;;;3.58;100.00;96524.38;5103663;28;20208;-77
2021/01/31 06:43:07;;;;;;;12.90;7.47;;;;;;;3.61;100.00;96529.28;5116535;28;20229;-77
2021/01/31 06:45:39;;;;;;;11.57;6.97;;;;;;;4.02;100.00;96530.91;5112014;28;20252;-76
2021/01/31 06:48:36;;;;;;;11.97;6.73;;;;;;;3.75;100.00;96534.44;5102099;28;20263;-77
2021/01/31 06:51:46;;;;;;;12.27;7.10;;;;;;;3.62;100.00;96533.53;5111894;28;20700;-76
2021/01/31 06:54:39;;;;;;;12.43;7.50;;;;;;;3.65;100.00;96538.44;5112007;28;20200;-76
2021/01/31 06:57:27;;;;;;;12.63;7.57;;;;;;;3.72;100.00;96550.63;5107604;28;20205;-77
2021/01/31 07:00:29;;;;;;;10.73;6.90;;;;;;;3.80;100.00;96544.38;5108562;28;20678;-77
2021/01/31 07:03:17;;;;;;;12.23;7.23;;;;;;;3.81;100.00;96553.97;5072695;28;20215;-76
2021/01/31 07:05:59;;;;;;;10.03;5.93;;;;;;;3.95;100.00;96551.19;5112137;28;20206;-74
2021/01/31 07:08:45;;;;;;;13.43;8.03;;;;;;;3.66;100.00;96558.53;5101034;28;20225;-77
2021/01/31 07:11:31;;;;;;;12.03;7.13;;;;;;;3.81;100.00;96565.31;5106140;28;20212;-74
2021/01/31 07:14:16;;;;;;;12.97;7.27;;;;;;;3.92;100.00;96570.03;5109241;28;20563;-77
2021/01/31 07:16:45;;;;;;;10.40;7.00;;;;;;;3.59;100.00;96582.22;5106143;28;20197;-77
2021/01/31 07:19:17;;;;;;;14.13;7.27;;;;;;;3.61;100.00;96577.56;5105387;28;20221;-75
2021/01/31 07:21:53;;;;;;;12.90;8.13;;;;;;;3.69;100.00;96579.22;5109654;28;20196;-75
2021/01/31 07:24:24;;;;;;;13.50;6.90;;;;;;;3.74;100.00;96582.94;5110219;28;20200;-77
2021/01/31 07:26:54;;;;;;;10.50;6.60;;;;;;;3.86;100.00;96591.13;5114731;28;20196;-78
2021/01/31 07:29:26;;;;;;;13.17;6.90;;;;;;;4.31;100.00;96580.81;5106841;28;20209;-75
2021/01/31 07:31:53;;;;;;;12.93;7.30;;;;;;;3.85;100.00;96592.13;5107295;28;20289;-76
2021/01/31 07:34:25;;;;;;;12.57;8.00;;;;;;;3.76;100.00;96580.91;5107278;28;20331;-76
2021/01/31 07:37:09;;;;;;;16.13;8.83;;;;;;;3.82;100.00;96582.75;5107855;28;20241;-76
2021/01/31 07:39:47;;;;;;;14.03;7.17;;;;;;;3.96;100.00;96588.97;5108990;28;20691;-78
2021/01/31 07:42:15;;;;;;;12.47;6.93;;;;;;;3.89;100.00;96594.19;5114580;28;20208;-75
2021/01/31 07:44:43;;;;;;;12.87;7.23;;;;;;;3.83;100.00;96589.69;5111408;28;20645;-77
2021/01/31 07:47:10;;;;;;;12.23;7.03;;;;;;;4.00;100.00;96582.25;5113437;28;20215;-76
2021/01/31 07:50:29;;;;;;;12.03;6.90;;;;;;;4.17;100.00;96589.66;5108601;28;20569;-78
2021/01/31 07:52:58;;;;;;;11.63;7.20;;;;;;;3.98;100.00;96605.41;5045102;28;20215;-77
2021/01/31 07:55:29;;;;;;;11.60;6.50;;;;;;;4.14;100.00;96591.88;5043952;28;20207;-76
2021/01/31 07:58:03;;;;;;;11.30;6.93;;;;;;;4.20;100.00;96585.81;5073169;28;20236;-76
2021/01/31 08:00:40;;;;;;;12.77;6.93;;;;;;;4.18;100.00;96587.84;5104838;28;20233;-80
2021/01/31 08:03:19;;;;;;;11.13;6.40;;;;;;;4.03;100.00;96579.25;5119340;28;20248;-82
2021/01/31 08:05:59;;;;;;;12.80;6.77;;;;;;;3.94;100.00;96583.03;5108897;28;20195;-80
2021/01/31 08:08:51;;;;;;;12.17;6.77;;;;;;;3.80;100.00;96587.44;5112468;28;20224;-79
2021/01/31 08:11:54;;;;;;;12.27;8.05;;;;;;;4.04;100.00;96591.41;5113856;28;20505;-78
2021/01/31 08:14:58;;;;;;;10.63;7.03;;;;;;;3.98;100.00;96597.47;5118183;28;20192;-81
2021/01/31 08:17:46;;;;;;;12.17;6.53;;;;;;;4.05;100.00;96596.50;5108296;28;20231;-78
2021/01/31 08:20:39;;;;;;;9.63;5.83;;;;;;;4.38;100.00;96610.72;5083811;28;20208;-86
2021/01/31 08:23:46;;;;;;;11.43;6.60;;;;;;;4.35;100.00;96602.34;5110045;28;20577;-76
2021/01/31 08:26:43;;;;;;;9.20;6.20;;;;;;;3.82;100.00;96603.06;5114216;28;20683;-77
2021/01/31 08:29:32;;;;;;;10.13;6.77;;;;;;;3.83;100.00;96610.81;5107900;28;20271;-76
2021/01/31 08:32:11;;;;;;;10.60;5.93;;;;;;;3.94;100.00;96602.34;5101481;28;20586;-79
2021/01/31 08:35:15;;;;;;;11.37;7.00;;;;;;;4.04;100.00;96597.53;5108665;28;20701;-78
2021/01/31 08:37:42;;;;;;;10.77;6.47;;;;;;;4.22;100.00;96600.44;5109978;28;20223;-79
2021/01/31 08:40:22;;;;;;;10.83;6.07;;;;;;;4.23;100.00;96607.38;5115916;28;20198;-78
2021/01/31 08:42:54;;;;;;;11.23;6.10;;;;;;;4.14;100.00;96611.19;5109910;28;20204;-77
2021/01/31 08:45:22;;;;;;;12.57;5.93;;;;;;;4.64;100.00;96605.53;5104326;28;20632;-76
2021/01/31 08:47:49;;;;;;;10.60;6.43;;;;;;;4.59;100.00;96610.59;5113062;28;20217;-77
2021/01/31 08:50:17;;;;;;;11.07;6.23;;;;;;;4.37;100.00;96609.06;5113979;27;20199;-80
2021/01/31 08:52:46;;;;;;;10.40;6.50;;;;;;;4.37;100.00;96616.97;5113954;28;20676;-81
2021/01/31 08:55:13;;;;;;;11.67;6.40;;;;;;;4.36;100.00;96610.06;5113765;28;20198;-76
2021/01/31 08:57:41;;;;;;;11.00;6.47;;;;;;;4.43;100.00;96608.25;5109719;28;20713;-78
2021/01/31 09:00:12;;;;;;;11.23;6.87;;;;;;;4.74;100.00;96611.25;5105093;28;20211;-75
2021/01/31 09:02:43;;;;;;;10.67;6.63;;;;;;;4.34;100.00;96613.91;5107187;28;20606;-77
2021/01/31 09:05:13;;;;;;;9.43;6.40;;;;;;;4.76;100.00;96611.84;5111672;28;20201;-75
2021/01/31 09:07:42;;;;;;;9.57;5.70;;;;;;;4.84;100.00;96621.44;5111237;28;20228;-75
2021/01/31 09:10:14;;;;;;;9.47;6.13;;;;;;;4.64;100.00;96617.91;5111550;28;20222;-79
2021/01/31 09:12:44;;;;;;;9.60;5.83;;;;;;;4.83;100.00;96612.69;5113785;28;20186;-76
2021/01/31 09:15:15;;;;;;;10.30;6.10;;;;;;;4.97;100.00;96624.13;5112610;28;20555;-76
2021/01/31 09:17:42;;;;;;;8.57;5.57;;;;;;;4.80;100.00;96638.69;5105625;28;20698;-75
2021/01/31 09:20:25;;;;;;;9.83;5.90;;;;;;;4.92;100.00;96632.63;5113172;28;20198;-76
2021/01/31 09:22:54;;;;;;;10.10;6.10;;;;;;;4.75;100.00;96628.72;5105175;28;20205;-79
2021/01/31 09:25:23;;;;;;;8.77;5.70;;;;;;;4.75;100.00;96628.72;5111032;28;20206;-77
2021/01/31 09:28:05;;;;;;;9.47;5.53;;;;;;;4.99;100.00;96644.06;5101622;28;21028;-77
2021/01/31 09:30:33;;;;;;;7.97;5.53;;;;;;;4.76;100.00;96637.44;5112940;28;20205;-75
2021/01/31 09:33:04;;;;;;;8.50;5.40;;;;;;;4.63;100.00;96632.94;5112686;28;20204;-77
2021/01/31 09:35:34;;;;;;;9.50;6.20;;;;;;;4.61;100.00;96629.69;5103963;28;20193;-76
2021/01/31 09:38:16;;;;;;;8.73;5.77;;;;;;;4.89;100.00;96633.06;5112863;28;20222;-76
2021/01/31 09:40:44;;;;;;;7.20;5.27;;;;;;;4.75;100.00;96643.75;5104730;28;20806;-74
2021/01/31 09:43:17;;;;;;;9.00;6.20;;;;;;;4.66;100.00;96644.94;5112227;28;20208;-78
2021/01/31 09:45:47;;;;;;;9.70;6.27;;;;;;;4.72;100.00;96644.97;5113280;28;20197;-78
2021/01/31 09:48:15;;;;;;;8.13;6.03;;;;;;;4.65;100.00;96643.31;5103184;28;20223;-78
2021/01/31 09:50:45;;;;;;;9.80;6.10;;;;;;;4.65;100.00;96643.31;5111227;28;20237;-78
2021/01/31 09:53:28;;;;;;;8.57;5.77;;;;;;;4.89;100.00;96648.91;5112199;28;20194;-78
2021/01/31 09:55:54;;;;;;;9.80;5.53;;;;;;;4.91;100.00;96646.03;5111651;28;20186;-76
2021/01/31 09:58:25;;;;;;;9.50;5.90;;;;;;;4.99;100.00;96653.81;5112149;28;20835;-76
2021/01/31 10:00:53;;;;;;;8.27;5.97;;;;;;;4.74;100.00;96653.53;5107218;28;20192;-76
2021/01/31 10:03:31;;;;;;;11.93;6.27;;;;;;;4.92;100.00;96655.63;5100073;28;20560;-79
2021/01/31 10:06:05;;;;;;;9.67;6.00;;;;;;;5.09;100.00;96641.84;5108641;28;20561;-76
2021/01/31 10:08:33;;;;;;;8.47;5.43;;;;;;;5.07;100.00;96638.56;5104218;28;20223;-76
2021/01/31 10:11:31;;;;;;;9.77;6.30;;;;;;;5.28;100.00;96642.91;5112356;28;20225;-77
2021/01/31 10:14:05;;;;;;;9.80;6.47;;;;;;;5.14;100.00;96634.09;5108463;28;20196;-77
2021/01/31 10:16:35;;;;;;;10.47;6.53;;;;;;;4.68;100.00;96624.44;5111740;28;20759;-78
2021/01/31 10:19:17;;;;;;;10.87;6.13;;;;;;;4.89;100.00;96621.66;5103192;28;20238;-80
2021/01/31 10:21:47;;;;;;;10.47;6.07;;;;;;;5.00;100.00;96624.53;5104370;28;20197;-77
2021/01/31 10:24:35;;;;;;;10.23;6.27;;;;;;;5.25;100.00;96625.59;5110592;28;20205;-77
2021/01/31 10:27:06;;;;;;;12.20;7.50;;;;;;;4.98;100.00;96608.03;5108864;28;20207;-78
2021/01/31 10:29:34;;;;;;;11.27;6.90;;;;;;;5.24;100.00;96609.94;5102479;28;20206;-76
2021/01/31 10:32:21;;;;;;;10.23;6.93;;;;;;;5.22;100.00;96615.41;5102045;28;20709;-75
2021/01/31 10:34:48;;;;;;;10.63;6.90;;;;;;;5.43;100.00;96611.78;5102637;28;20210;-77
2021/01/31 10:37:17;;;;;;;9.37;5.83;;;;;;;5.23;100.00;96613.59;5109742;28;20223;-76
2021/01/31 10:39:46;;;;;;;11.63;6.60;;;;;;;5.27;100.00;96607.69;5106064;28;20204;-77
2021/01/31 10:42:13;;;;;;;10.20;6.63;;;;;;;5.56;100.00;96611.78;5104082;28;20240;-77
2021/01/31 10:44:41;;;;;;;10.33;5.97;;;;;;;5.30;100.00;96620.53;5111535;28;20201;-75
2021/01/31 10:47:08;;;;;;;9.80;6.10;;;;;;;5.46;100.00;96616.66;5103589;28;20259;-73
2021/01/31 10:49:34;;;;;;;9.23;6.17;;;;;;;5.63;100.00;96609.97;5101731;28;20199;-73
2021/01/31 10:52:02;;;;;;;10.67;6.63;;;;;;;5.72;100.00;96612.19;5110580;28;20228;-74
2021/01/31 10:54:28;;;;;;;9.87;6.47;;;;;;;5.96;100.00;96616.06;5105362;28;20230;-76
2021/01/31 10:56:55;;;;;;;9.93;6.03;;;;;;;6.30;100.00;96613.94;5108876;28;20245;-77
2021/01/31 10:59:22;;;;;;;10.33;6.20;;;;;;;6.26;100.00;96615.41;5114727;28;20558;-76
2021/01/31 11:01:50;;;;;;;11.00;6.10;;;;;;;6.29;100.00;96612.31;5115939;27;20192;-76
2021/01/31 11:04:18;;;;;;;7.80;5.50;;;;;;;6.43;100.00;96605.13;5116192;28;20224;-75
2021/01/31 11:06:45;;;;;;;10.10;6.23;;;;;;;5.73;100.00;96603.22;5115663;28;20206;-76
2021/01/31 11:09:14;;;;;;;10.20;5.90;;;;;;;5.65;100.00;96605.25;5115571;28;20318;-78
2021/01/31 11:11:41;;;;;;;9.87;5.87;;;;;;;5.71;100.00;96605.25;5115528;28;20222;-76
2021/01/31 11:14:08;;;;;;;9.17;6.10;;;;;;;5.55;100.00;96605.69;5115308;28;20667;-78
2021/01/31 11:16:35;;;;;;;8.70;5.73;;;;;;;5.86;100.00;96602.41;5111330;28;20576;-76
2021/01/31 11:19:04;;;;;;;9.70;6.23;;;;;;;5.68;100.00;96595.06;5113587;28;20222;-76
2021/01/31 11:21:31;;;;;;;8.77;5.87;;;;;;;5.80;100.00;96600.59;5106610;28;20233;-76
2021/01/31 11:23:58;;;;;;;12.27;6.30;;;;;;;5.61;100.00;96594.28;5111696;28;20200;-79
2021/01/31 11:26:25;;;;;;;8.70;5.30;;;;;;;5.50;100.00;96594.06;5115571;28;20196;-78
2021/01/31 11:28:52;;;;;;;7.83;5.40;;;;;;;6.02;100.00;96600.16;5115349;28;20215;-77
2021/01/31 11:31:20;;;;;;;12.80;6.17;;;;;;;5.79;100.00;96593.66;5115058;28;20223;-76
2021/01/31 11:33:50;;;;;;;10.73;5.80;;;;;;;5.82;100.00;96591.44;5108885;28;20200;-78
2021/01/31 11:36:18;;;;;;;10.87;6.43;;;;;;;5.79;100.00;96593.66;5114437;28;20233;-76
2021/01/31 11:38:45;;;;;;;7.83;5.10;;;;;;;5.71;100.00;96602.63;5108552;28;20225;-78
2021/01/31 11:41:11;;;;;;;9.47;5.90;;;;;;;5.81;100.00;96596.94;5116126;28;20203;-78
2021/01/31 11:43:38;;;;;;;9.67;6.47;;;;;;;6.18;100.00;96591.78;5115293;28;20288;-76
2021/01/31 11:46:05;;;;;;;10.30;6.10;;;;;;;5.92;100.00;96597.13;5107485;28;20258;-75
2021/01/31 11:48:32;;;;;;;13.13;5.90;;;;;;;6.50;100.00;96585.53;5108496;27;20221;-75
2021/01/31 11:50:59;;;;;;;9.00;5.83;;;;;;;6.60;100.00;96587.75;5103940;28;20702;-75